Time;durP1;ratioP1;P1;durP2;ratioP2;P2;SDS_P1;SDS_P2;PMS_P1;PMS_P2;Temp;Humidity;BMP_temperature;BMP_pressure;BME280_temperature;BME280_humidity;BME280_pressure;Samples;Min_cycle;Max_cycle;Signal;HPM_P1;HPM_P2
2021/12/26 00:00:49;;;;;;;4.05;1.60;;;;;;;-0.83;100.00;100737.06;5240427;28;20044;-70
2021/12/26 00:03:23;;;;;;;4.07;1.90;;;;;;;-0.90;100.00;100722.75;5241533;28;20033;-70
2021/12/26 00:05:58;;;;;;;4.20;2.25;;;;;;;-0.87;100.00;100734.63;5223597;28;20036;-70
2021/12/26 00:08:29;;;;;;;6.07;2.30;;;;;;;-0.86;100.00;100737.16;5218198;28;20030;-70
2021/12/26 00:11:00;;;;;;;5.10;2.00;;;;;;;-0.86;100.00;100737.16;5237333;28;20052;-70
2021/12/26 00:13:33;;;;;;;3.60;2.25;;;;;;;-0.88;100.00;100726.09;5235919;28;20102;-70
2021/12/26 00:16:06;;;;;;;3.15;1.80;;;;;;;-0.89;100.00;100736.44;5236315;28;20060;-70
2021/12/26 00:18:44;;;;;;;5.03;2.00;;;;;;;-0.89;100.00;100732.13;5236930;28;20029;-70
2021/12/26 00:21:20;;;;;;;5.40;2.17;;;;;;;-0.87;100.00;100719.22;5237223;28;20028;-70
2021/12/26 00:23:53;;;;;;;4.57;2.40;;;;;;;-0.89;100.00;100718.44;5235710;28;20025;-70
2021/12/26 00:26:25;;;;;;;4.63;2.00;;;;;;;-0.94;100.00;100716.06;5236693;28;20037;-70
2021/12/26 00:28:56;;;;;;;3.50;1.95;;;;;;;-1.02;100.00;100710.38;5234399;28;20026;-70
2021/12/26 00:31:28;;;;;;;5.05;2.38;;;;;;;-1.02;100.00;100712.97;5238556;28;20032;-70
2021/12/26 00:33:59;;;;;;;7.47;2.55;;;;;;;-1.07;100.00;100710.53;5237140;28;20480;-70
2021/12/26 00:36:31;;;;;;;4.05;2.20;;;;;;;-1.09;100.00;100712.34;5237480;28;20112;-70
2021/12/26 00:39:04;;;;;;;3.88;2.15;;;;;;;-1.07;100.00;100709.72;5236248;28;20029;-70
2021/12/26 00:41:39;;;;;;;5.28;2.20;;;;;;;-1.08;100.00;100705.47;5236869;28;20029;-70
2021/12/26 00:44:10;;;;;;;5.97;2.10;;;;;;;-1.11;100.00;100708.16;5236106;28;20033;-70
2021/12/26 00:46:42;;;;;;;4.57;2.22;;;;;;;-1.04;100.00;100707.84;5233725;28;20026;-70
2021/12/26 00:49:13;;;;;;;4.45;2.30;;;;;;;-1.04;100.00;100705.28;5238212;28;20029;-70
2021/12/26 00:51:44;;;;;;;5.07;2.50;;;;;;;-1.08;100.00;100708.03;5234545;28;20033;-70
2021/12/26 00:54:16;;;;;;;5.75;2.70;;;;;;;-1.09;100.00;100712.34;5235181;28;20135;-70
2021/12/26 00:56:47;;;;;;;3.92;1.83;;;;;;;-1.08;100.00;100708.88;5235053;28;20029;-70
2021/12/26 00:59:18;;;;;;;3.38;1.88;;;;;;;-1.01;100.00;100714.63;5237683;28;20442;-70
2021/12/26 01:01:51;;;;;;;3.45;2.22;;;;;;;-0.99;100.00;100708.50;5236274;28;20027;-70
2021/12/26 01:04:23;;;;;;;3.78;2.20;;;;;;;-0.93;100.00;100716.91;5235244;28;20037;-70
2021/12/26 01:06:54;;;;;;;7.05;2.70;;;;;;;-0.98;100.00;100722.22;5234228;28;20502;-70
2021/12/26 01:09:28;;;;;;;4.72;2.97;;;;;;;-0.95;100.00;100711.78;5236309;28;20025;-70
2021/12/26 01:12:10;;;;;;;3.88;2.05;;;;;;;-0.84;100.00;100716.53;5234778;28;20033;-70
2021/12/26 01:14:48;;;;;;;4.25;2.53;;;;;;;-0.83;100.00;100721.63;5235060;28;20475;-70
2021/12/26 01:17:23;;;;;;;4.72;2.30;;;;;;;-0.77;100.00;100708.50;5237051;28;20042;-70
2021/12/26 01:19:55;;;;;;;6.47;2.60;;;;;;;-0.81;100.00;100706.94;5235398;28;20056;-70
2021/12/26 01:22:26;;;;;;;4.15;2.55;;;;;;;-0.78;100.00;100703.44;5237683;28;20628;-70
2021/12/26 01:24:59;;;;;;;4.45;2.55;;;;;;;-0.84;100.00;100711.38;5217882;28;20053;-70
2021/12/26 01:27:30;;;;;;;6.10;3.08;;;;;;;-0.67;100.00;100705.56;5233122;28;20033;-70
2021/12/26 01:30:04;;;;;;;5.05;2.17;;;;;;;-0.65;100.00;100711.47;5235377;28;20403;-70
2021/12/26 01:32:35;;;;;;;6.15;2.40;;;;;;;-0.74;100.00;100697.25;5236364;28;20037;-70
2021/12/26 01:35:07;;;;;;;5.35;2.70;;;;;;;-0.62;100.00;100698.50;5235951;28;20093;-70
2021/12/26 01:37:38;;;;;;;5.18;2.80;;;;;;;-0.63;100.00;100695.09;5235453;28;20034;-70
2021/12/26 01:40:10;;;;;;;4.75;2.83;;;;;;;-0.59;100.00;100698.38;5233780;28;20025;-70
2021/12/26 01:42:42;;;;;;;6.22;2.65;;;;;;;-0.65;100.00;100686.59;5234766;28;20030;-70
2021/12/26 01:45:14;;;;;;;4.93;2.40;;;;;;;-0.55;100.00;100697.34;5236479;28;20111;-70
2021/12/26 01:47:46;;;;;;;5.18;2.70;;;;;;;-0.47;100.00;100699.59;5235655;28;20529;-70
2021/12/26 01:50:17;;;;;;;5.32;2.63;;;;;;;-0.53;100.00;100701.53;5235278;28;20216;-70
2021/12/26 01:52:49;;;;;;;4.72;2.58;;;;;;;-0.56;100.00;100695.69;5234251;28;20025;-70
2021/12/26 01:55:24;;;;;;;5.78;2.58;;;;;;;-0.61;100.00;100690.69;5202631;28;20046;-70
2021/12/26 01:57:57;;;;;;;6.00;3.05;;;;;;;-0.62;100.00;100696.75;5213556;28;20030;-70
2021/12/26 02:00:28;;;;;;;12.75;2.85;;;;;;;-0.51;100.00;100698.91;5213430;28;20487;-70
2021/12/26 02:03:00;;;;;;;4.50;2.78;;;;;;;-0.62;100.00;100688.22;5213053;28;20038;-70
2021/12/26 02:05:32;;;;;;;5.40;2.63;;;;;;;-0.50;100.00;100701.41;5195421;28;20475;-70
2021/12/26 02:08:04;;;;;;;5.55;2.83;;;;;;;-0.48;100.00;100691.06;5213438;28;20296;-70
2021/12/26 02:10:36;;;;;;;4.28;2.55;;;;;;;-0.40;100.00;100693.31;5214203;28;20026;-70
2021/12/26 02:13:07;;;;;;;5.57;2.97;;;;;;;-0.44;100.00;100690.03;5215462;28;20037;-70
2021/12/26 02:15:39;;;;;;;6.53;3.13;;;;;;;-0.38;100.00;100692.34;5212478;28;20238;-70
2021/12/26 02:18:11;;;;;;;6.60;3.08;;;;;;;-0.38;100.00;100688.91;5215254;28;20088;-70
2021/12/26 02:29:14;;;;;;;4.40;2.67;;;;;;;-0.32;100.00;100686.09;5218916;28;20057;-69
2021/12/26 02:31:45;;;;;;;6.90;3.20;;;;;;;-0.34;100.00;100683.59;5218510;28;20641;-70
2021/12/26 02:34:17;;;;;;;4.28;2.25;;;;;;;-0.40;100.00;100678.69;5218339;28;20424;-70
2021/12/26 02:36:48;;;;;;;4.85;2.88;;;;;;;-0.36;100.00;100669.94;5217853;28;20044;-70
2021/12/26 02:39:19;;;;;;;4.18;2.72;;;;;;;-0.36;100.00;100672.53;5218845;28;20041;-69
2021/12/26 02:41:51;;;;;;;6.38;2.67;;;;;;;-0.36;100.00;100667.38;5219070;28;20029;-69
2021/12/26 02:44:22;;;;;;;6.90;3.08;;;;;;;-0.33;100.00;100674.97;5218966;28;20076;-69
2021/12/26 02:46:53;;;;;;;4.50;3.10;;;;;;;-0.32;100.00;100663.75;5219147;28;20038;-69
2021/12/26 02:49:25;;;;;;;4.70;2.70;;;;;;;-0.29;100.00;100663.63;5218235;28;20029;-69
2021/12/26 02:51:56;;;;;;;7.38;2.80;;;;;;;-0.27;100.00;100664.41;5217718;28;20081;-69
2021/12/26 02:54:28;;;;;;;4.97;2.90;;;;;;;-0.26;100.00;100660.94;5199772;28;20081;-69
2021/12/26 02:56:59;;;;;;;5.35;2.92;;;;;;;-0.23;100.00;100665.09;5216602;28;20112;-69
2021/12/26 02:59:31;;;;;;;3.75;2.53;;;;;;;-0.18;100.00;100670.06;5217971;28;20053;-69
2021/12/26 03:02:03;;;;;;;5.68;2.95;;;;;;;-0.18;100.00;100668.34;5217528;28;20034;-69
2021/12/26 03:04:35;;;;;;;4.47;2.50;;;;;;;-0.21;100.00;100663.31;5216057;28;20022;-69
2021/12/26 03:07:06;;;;;;;5.75;2.80;;;;;;;-0.23;100.00;100667.69;5219151;28;20026;-69
2021/12/26 03:09:48;;;;;;;4.70;2.80;;;;;;;-0.12;100.00;100665.47;5218246;28;20056;-69
2021/12/26 03:12:19;;;;;;;5.53;2.95;;;;;;;-0.12;100.00;100669.78;5218612;28;20508;-69
2021/12/26 03:14:51;;;;;;;5.75;2.53;;;;;;;-0.13;100.00;100665.56;5218769;28;20117;-70
2021/12/26 03:17:23;;;;;;;4.35;2.45;;;;;;;-0.09;100.00;100662.78;5217102;28;20034;-69
2021/12/26 03:19:54;;;;;;;6.18;3.20;;;;;;;-0.12;100.00;100659.50;5216032;28;20391;-69
2021/12/26 03:22:25;;;;;;;5.25;2.72;;;;;;;-0.13;100.00;100652.69;5218491;28;20037;-69
2021/12/26 03:24:57;;;;;;;4.93;2.80;;;;;;;-0.25;100.00;100644.59;5216380;28;20037;-69
2021/12/26 03:27:28;;;;;;;5.43;3.10;;;;;;;-0.37;100.00;100642.53;5201529;28;20033;-69
2021/12/26 03:29:59;;;;;;;5.35;2.90;;;;;;;-0.43;100.00;100639.38;5217882;28;20083;-69
2021/12/26 03:32:31;;;;;;;5.30;2.85;;;;;;;-0.46;100.00;100642.91;5217413;28;20029;-69
2021/12/26 03:35:03;;;;;;;5.45;3.00;;;;;;;-0.47;100.00;100638.69;5219328;28;20523;-69
2021/12/26 03:37:34;;;;;;;4.95;2.97;;;;;;;-0.46;100.00;100639.50;5217699;28;20058;-69
2021/12/26 03:40:07;;;;;;;4.95;3.15;;;;;;;-0.56;100.00;100651.94;5216524;28;20187;-69
2021/12/26 03:42:39;;;;;;;4.75;2.85;;;;;;;-0.55;100.00;100645.88;5216448;28;20539;-69
2021/12/26 03:45:11;;;;;;;5.93;3.05;;;;;;;-0.62;100.00;100654.75;5217590;28;20087;-69
2021/12/26 03:47:42;;;;;;;6.75;3.00;;;;;;;-0.63;100.00;100653.94;5218139;28;20025;-69
2021/12/26 03:50:14;;;;;;;5.13;2.88;;;;;;;-0.64;100.00;100654.00;5217870;28;20021;-69
2021/12/26 03:52:46;;;;;;;5.25;3.20;;;;;;;-0.64;100.00;100654.84;5217449;28;20553;-69
2021/12/26 03:55:18;;;;;;;4.38;2.75;;;;;;;-0.62;100.00;100649.63;5234653;28;20479;-70
2021/12/26 03:57:49;;;;;;;6.95;2.80;;;;;;;-0.69;100.00;100648.19;5237260;28;20036;-69
2021/12/26 04:00:23;;;;;;;4.95;2.72;;;;;;;-0.66;100.00;100642.94;5236647;28;20029;-70
2021/12/26 04:02:55;;;;;;;6.07;3.13;;;;;;;-0.72;100.00;100646.56;5236260;28;20041;-70
2021/12/26 04:05:26;;;;;;;7.45;2.80;;;;;;;-0.78;100.00;100644.28;5237908;28;21109;-70
2021/12/26 04:07:58;;;;;;;4.50;2.78;;;;;;;-0.75;100.00;100639.84;5239216;28;20285;-69
2021/12/26 04:10:29;;;;;;;4.63;2.85;;;;;;;-0.81;100.00;100632.38;5236657;28;20028;-70
2021/12/26 04:13:01;;;;;;;4.40;2.92;;;;;;;-0.85;100.00;100642.84;5239573;28;20057;-69
2021/12/26 04:15:32;;;;;;;6.97;3.00;;;;;;;-0.87;100.00;100640.34;5236925;28;20397;-70
2021/12/26 04:18:04;;;;;;;4.28;2.63;;;;;;;-0.88;100.00;100636.09;5237622;28;20462;-69
2021/12/26 04:20:36;;;;;;;4.10;3.03;;;;;;;-0.93;100.00;100643.16;5236344;28;20280;-69
2021/12/26 04:23:08;;;;;;;4.20;2.83;;;;;;;-0.98;100.00;100638.22;5238843;28;20127;-69
2021/12/26 04:25:40;;;;;;;4.82;2.90;;;;;;;-1.05;100.00;100631.63;5238661;28;20067;-69
2021/12/26 04:28:11;;;;;;;5.25;3.10;;;;;;;-1.15;100.00;100643.16;5238045;28;20574;-69
2021/12/26 04:30:46;;;;;;;4.78;2.90;;;;;;;-1.13;100.00;100638.81;5237102;28;20079;-70
2021/12/26 04:33:17;;;;;;;6.03;3.28;;;;;;;-1.10;100.00;100642.97;5236816;28;20479;-69
2021/12/26 04:35:48;;;;;;;5.00;3.13;;;;;;;-1.20;100.00;100639.13;5236314;28;20029;-69
2021/12/26 04:38:19;;;;;;;5.43;2.90;;;;;;;-1.23;100.00;100638.34;5237850;28;20109;-69
2021/12/26 04:40:51;;;;;;;5.82;3.20;;;;;;;-1.20;100.00;100631.41;5238045;28;20033;-70
2021/12/26 04:43:24;;;;;;;5.93;2.80;;;;;;;-1.26;100.00;100628.16;5237116;28;20116;-69
2021/12/26 04:45:56;;;;;;;6.28;2.45;;;;;;;-1.20;100.00;100619.41;5237538;28;20391;-69
2021/12/26 04:48:27;;;;;;;4.25;2.58;;;;;;;-1.23;100.00;100629.78;5237003;28;20033;-69
2021/12/26 04:50:59;;;;;;;5.22;3.10;;;;;;;-1.27;100.00;100615.38;5237567;28;20048;-69
2021/12/26 04:53:31;;;;;;;7.55;2.95;;;;;;;-1.31;100.00;100619.81;5237904;28;20510;-70
2021/12/26 04:56:04;;;;;;;4.45;2.95;;;;;;;-1.29;100.00;100620.59;5236064;28;20032;-69
2021/12/26 04:58:36;;;;;;;5.30;3.17;;;;;;;-1.35;100.00;100630.28;5236666;28;20396;-69
2021/12/26 05:01:07;;;;;;;6.25;3.03;;;;;;;-1.41;100.00;100625.38;5236852;28;20138;-69
2021/12/26 05:03:40;;;;;;;9.85;3.53;;;;;;;-1.34;100.00;100619.94;5237600;28;20479;-69
2021/12/26 05:06:11;;;;;;;5.15;2.80;;;;;;;-1.29;100.00;100620.59;5237958;28;20025;-69
2021/12/26 05:08:43;;;;;;;4.75;3.22;;;;;;;-1.29;100.00;100622.31;5237296;28;20458;-69
2021/12/26 05:11:14;;;;;;;5.72;3.30;;;;;;;-1.42;100.00;100616.81;5236402;28;20074;-69
2021/12/26 05:13:46;;;;;;;5.38;3.25;;;;;;;-1.39;100.00;100611.56;5237893;28;20028;-70
2021/12/26 05:16:17;;;;;;;5.88;3.13;;;;;;;-1.38;100.00;100615.81;5236124;28;20036;-70
2021/12/26 05:18:48;;;;;;;6.50;3.35;;;;;;;-1.34;100.00;100614.78;5234745;28;20087;-69
2021/12/26 05:21:20;;;;;;;5.95;3.10;;;;;;;-1.29;100.00;100614.59;5238175;28;20095;-69
2021/12/26 05:23:51;;;;;;;5.28;2.92;;;;;;;-1.39;100.00;100618.44;5235965;28;20125;-69
2021/12/26 05:26:22;;;;;;;5.35;3.20;;;;;;;-1.41;100.00;100615.09;5237307;28;20032;-69
2021/12/26 05:28:54;;;;;;;4.97;3.15;;;;;;;-1.38;100.00;100609.84;5235898;28;20524;-69
2021/12/26 05:31:25;;;;;;;5.55;3.35;;;;;;;-1.39;100.00;100606.44;5219296;28;20107;-69
2021/12/26 05:33:56;;;;;;;5.45;3.05;;;;;;;-1.51;100.00;100602.59;5236925;28;20025;-69
2021/12/26 05:36:28;;;;;;;4.78;3.13;;;;;;;-1.49;100.00;100607.69;5218472;28;20044;-69
2021/12/26 05:38:59;;;;;;;5.80;3.30;;;;;;;-1.51;100.00;100600.03;5235892;28;20025;-69
2021/12/26 05:41:32;;;;;;;5.90;3.25;;;;;;;-1.51;100.00;100599.22;5234174;28;20076;-69
2021/12/26 05:44:04;;;;;;;;;;;;;;;-1.11;100.00;100601.03;5237464;28;20026;-69
2021/12/26 05:46:37;;;;;;;4.97;3.05;;;;;;;-1.50;100.00;100594.00;5250982;28;19927;-70
2021/12/26 05:49:08;;;;;;;5.18;3.03;;;;;;;-1.49;100.00;100594.81;5235890;28;20025;-69
2021/12/26 05:51:40;;;;;;;6.97;3.22;;;;;;;-1.54;100.00;100592.44;5236593;28;20047;-70
2021/12/26 05:54:11;;;;;;;6.38;2.33;;;;;;;-1.53;100.00;100590.72;5236653;28;20050;-70
2021/12/26 05:56:42;;;;;;;5.38;2.92;;;;;;;-1.58;100.00;100584.94;5239062;28;20025;-69
2021/12/26 05:59:13;;;;;;;5.70;3.35;;;;;;;-1.61;100.00;100585.03;5240098;28;20032;-70
2021/12/26 06:01:45;;;;;;;5.57;3.10;;;;;;;-1.61;100.00;100575.59;5242632;28;20036;-69
2021/12/26 06:04:16;;;;;;;5.68;2.90;;;;;;;-1.64;100.00;100580.00;5240719;28;20022;-69
2021/12/26 06:06:47;;;;;;;4.50;3.03;;;;;;;-1.73;100.00;100576.91;5238981;28;20487;-69
2021/12/26 06:09:19;;;;;;;4.85;2.60;;;;;;;-1.72;100.00;100586.28;5240979;28;20536;-70
2021/12/26 06:11:50;;;;;;;6.20;2.97;;;;;;;-1.79;100.00;100577.13;5223671;28;20033;-70
2021/12/26 06:14:21;;;;;;;5.78;3.17;;;;;;;-1.78;100.00;100578.81;5238968;28;20060;-70
2021/12/26 06:16:53;;;;;;;9.02;3.70;;;;;;;-1.77;100.00;100575.34;5240111;28;20116;-69
2021/12/26 06:19:24;;;;;;;4.20;2.63;;;;;;;-1.72;100.00;100570.03;5220839;28;20448;-70
2021/12/26 06:21:55;;;;;;;4.63;2.80;;;;;;;-1.72;100.00;100578.56;5239823;28;20036;-70
2021/12/26 06:24:26;;;;;;;5.15;3.35;;;;;;;-1.67;100.00;100582.69;5240680;28;20040;-70
2021/12/26 06:26:58;;;;;;;6.07;3.05;;;;;;;-1.69;100.00;100582.75;5239913;28;20021;-69
2021/12/26 06:29:29;;;;;;;4.90;3.25;;;;;;;-1.74;100.00;100579.53;5240480;28;20029;-69
2021/12/26 06:32:01;;;;;;;7.38;3.90;;;;;;;-1.69;100.00;100580.19;5238434;28;20028;-69
2021/12/26 06:34:32;;;;;;;5.72;3.35;;;;;;;-1.74;100.00;100589.81;5239920;28;20051;-70
2021/12/26 06:37:04;;;;;;;7.13;3.90;;;;;;;-1.74;100.00;100590.66;5241665;28;20037;-69
2021/12/26 06:39:35;;;;;;;5.57;3.35;;;;;;;-1.76;100.00;100587.28;5239598;28;20029;-70
2021/12/26 06:42:06;;;;;;;6.38;3.40;;;;;;;-1.73;100.00;100587.19;5239606;28;20033;-69
2021/12/26 06:44:38;;;;;;;5.80;3.03;;;;;;;-1.68;100.00;100594.69;5240564;28;20160;-69
2021/12/26 06:47:09;;;;;;;4.47;2.83;;;;;;;-1.65;100.00;100594.59;5238731;28;20027;-70
2021/12/26 06:49:42;;;;;;;5.32;3.30;;;;;;;-1.73;100.00;100597.44;5242142;28;20029;-69
2021/12/26 06:52:13;;;;;;;6.15;3.10;;;;;;;-1.69;100.00;100598.19;5240702;28;20030;-69
2021/12/26 06:54:45;;;;;;;6.28;3.83;;;;;;;-1.72;100.00;100588.00;5240897;28;20057;-70
2021/12/26 06:57:16;;;;;;;6.38;3.25;;;;;;;-1.70;100.00;100593.94;5239724;28;20107;-70
2021/12/26 06:59:48;;;;;;;6.95;3.47;;;;;;;-1.71;100.00;100587.94;5239011;28;20502;-70
2021/12/26 07:02:19;;;;;;;5.20;3.55;;;;;;;-1.80;100.00;100584.91;5241102;28;20025;-70
2021/12/26 07:04:50;;;;;;;6.88;3.83;;;;;;;-1.81;100.00;100584.06;5240205;28;20036;-69
2021/12/26 07:07:21;;;;;;;6.55;3.45;;;;;;;-1.79;100.00;100581.44;5239572;28;20358;-70
2021/12/26 07:09:53;;;;;;;6.22;3.80;;;;;;;-1.74;100.00;100576.97;5237042;28;20029;-69
2021/12/26 07:12:24;;;;;;;6.97;3.65;;;;;;;-1.78;100.00;100578.81;5239830;28;20063;-69
2021/12/26 07:14:55;;;;;;;5.72;3.72;;;;;;;-1.74;100.00;100580.38;5240680;28;20088;-70
2021/12/26 07:17:27;;;;;;;6.97;3.50;;;;;;;-1.76;100.00;100583.88;5239829;28;20136;-70
2021/12/26 07:19:58;;;;;;;4.88;3.13;;;;;;;-1.77;100.00;100585.63;5238423;28;20361;-70
2021/12/26 07:22:29;;;;;;;6.45;3.42;;;;;;;-1.81;100.00;100583.25;5238223;28;20079;-69
2021/12/26 07:25:01;;;;;;;8.68;3.53;;;;;;;-1.84;100.00;100584.19;5238188;28;20048;-70
2021/12/26 07:27:33;;;;;;;5.38;3.35;;;;;;;-1.86;100.00;100580.81;5239604;28;20079;-70
2021/12/26 07:30:06;;;;;;;6.15;3.45;;;;;;;-1.82;100.00;100578.97;5239216;28;20043;-70
2021/12/26 07:32:37;;;;;;;5.60;3.42;;;;;;;-1.83;100.00;100585.00;5237776;28;20500;-69
2021/12/26 07:35:10;;;;;;;5.53;4.18;;;;;;;-1.83;100.00;100569.59;5237863;28;20091;-69
2021/12/26 07:37:41;;;;;;;5.80;3.90;;;;;;;-1.92;100.00;100573.38;5241576;28;20049;-69
2021/12/26 07:40:13;;;;;;;6.80;3.63;;;;;;;-1.88;100.00;100574.91;5238967;28;20473;-69
2021/12/26 07:42:45;;;;;;;6.13;3.65;;;;;;;-1.97;100.00;100573.53;5239600;28;20159;-69
2021/12/26 07:45:16;;;;;;;6.32;3.55;;;;;;;-1.87;100.00;100579.16;5219889;28;20033;-69
2021/12/26 07:47:48;;;;;;;6.45;4.28;;;;;;;-1.91;100.00;100577.59;5225877;28;20056;-69
2021/12/26 07:50:19;;;;;;;5.47;3.67;;;;;;;-1.89;100.00;100575.81;5237687;28;20052;-70
2021/12/26 07:52:52;;;;;;;6.18;3.53;;;;;;;-1.80;100.00;100584.91;5239365;28;20033;-70
2021/12/26 07:55:23;;;;;;;;;;;;;;;-1.42;100.00;100575.72;5238158;28;20053;-70
2021/12/26 07:57:55;;;;;;;5.50;3.85;;;;;;;-1.78;100.00;100585.66;5238066;28;20016;-69
2021/12/26 08:00:26;;;;;;;6.53;3.67;;;;;;;-1.79;100.00;100584.84;5239338;28;20075;-70
2021/12/26 08:02:58;;;;;;;6.43;4.10;;;;;;;-1.73;100.00;100592.31;5238749;28;20025;-70
2021/12/26 08:05:29;;;;;;;7.63;4.50;;;;;;;-1.76;100.00;100589.03;5237084;28;20537;-69
2021/12/26 08:08:02;;;;;;;7.13;4.55;;;;;;;-1.71;100.00;100595.66;5237296;28;20178;-70
2021/12/26 08:10:33;;;;;;;6.78;3.80;;;;;;;-1.63;100.00;100594.53;5239809;28;20035;-70
2021/12/26 08:13:04;;;;;;;6.43;4.03;;;;;;;-1.59;100.00;100593.50;5239067;28;20029;-70
2021/12/26 08:15:35;;;;;;;7.47;3.63;;;;;;;-1.58;100.00;100590.06;5235713;28;20028;-70
2021/12/26 08:18:07;;;;;;;7.63;4.20;;;;;;;-1.56;100.00;100588.25;5238037;28;20807;-70
2021/12/26 08:20:38;;;;;;;7.95;4.38;;;;;;;-1.49;100.00;100590.53;5222808;28;21119;-70
2021/12/26 08:23:11;;;;;;;6.78;4.50;;;;;;;-1.40;100.00;100598.75;5241566;28;20036;-70
2021/12/26 08:25:42;;;;;;;7.60;4.47;;;;;;;-1.34;100.00;100596.78;5241922;28;20025;-70
2021/12/26 08:28:14;;;;;;;7.85;4.78;;;;;;;-1.33;100.00;100585.63;5240319;28;20367;-70
2021/12/26 08:30:47;;;;;;;6.35;3.83;;;;;;;-1.30;100.00;100582.09;5236867;28;20021;-70
2021/12/26 08:33:18;;;;;;;9.52;4.88;;;;;;;-1.20;100.00;100588.56;5237302;28;20025;-70
2021/12/26 08:35:50;;;;;;;8.43;4.35;;;;;;;-1.14;100.00;100590.84;5238285;28;20048;-70
2021/12/26 08:38:21;;;;;;;7.30;4.30;;;;;;;-1.03;100.00;100583.53;5235485;28;20104;-70
2021/12/26 08:40:55;;;;;;;7.57;4.80;;;;;;;-0.95;100.00;100583.22;5239122;28;20049;-70
2021/12/26 08:43:26;;;;;;;6.75;4.05;;;;;;;-0.92;100.00;100572.81;5220709;28;20029;-70
2021/12/26 08:45:58;;;;;;;7.75;4.22;;;;;;;-0.88;100.00;100582.06;5226692;28;20411;-70
2021/12/26 08:48:29;;;;;;;7.82;4.40;;;;;;;-0.87;100.00;100573.50;5236107;28;20057;-70
2021/12/26 08:51:01;;;;;;;10.05;5.13;;;;;;;-0.78;100.00;100573.09;5236000;28;20025;-70
2021/12/26 08:53:32;;;;;;;7.07;4.07;;;;;;;-0.71;100.00;100572.84;5236821;28;20029;-70
2021/12/26 08:56:04;;;;;;;9.02;5.07;;;;;;;-0.67;100.00;100575.22;5238160;28;20032;-70
2021/12/26 08:58:35;;;;;;;7.40;4.65;;;;;;;-0.59;100.00;100582.59;5236838;28;20056;-70
2021/12/26 09:01:06;;;;;;;9.80;4.82;;;;;;;-0.56;100.00;100574.75;5224260;28;20029;-70
2021/12/26 09:03:38;;;;;;;7.53;4.82;;;;;;;-0.55;100.00;100573.84;5225690;28;20029;-72
2021/12/26 09:06:09;;;;;;;7.38;4.60;;;;;;;-0.52;100.00;100568.56;5239846;28;20033;-70
2021/12/26 09:08:40;;;;;;;10.57;5.00;;;;;;;-0.50;100.00;100567.59;5236849;28;20485;-70
2021/12/26 09:11:12;;;;;;;8.70;4.68;;;;;;;-0.41;100.00;100565.53;5238955;28;20616;-70
2021/12/26 09:13:45;;;;;;;6.07;4.38;;;;;;;-0.40;100.00;100568.03;5237795;28;20094;-70
2021/12/26 09:16:16;;;;;;;7.03;4.93;;;;;;;-0.35;100.00;100566.09;5236508;28;20124;-70
2021/12/26 09:18:48;;;;;;;10.27;6.05;;;;;;;-0.35;100.00;100554.94;5235074;28;20300;-70
2021/12/26 09:21:20;;;;;;;9.63;4.97;;;;;;;-0.34;100.00;100560.06;5237923;28;20486;-70
2021/12/26 09:23:51;;;;;;;6.70;4.82;;;;;;;-0.22;100.00;100570.72;5236592;28;20033;-70
2021/12/26 09:26:23;;;;;;;9.43;4.85;;;;;;;-0.21;100.00;100575.78;5238394;28;20040;-70
2021/12/26 09:28:54;;;;;;;7.93;5.50;;;;;;;-0.14;100.00;100571.19;5235824;28;20029;-70
2021/12/26 09:31:25;;;;;;;8.02;5.65;;;;;;;-0.08;100.00;100579.47;5235944;28;20029;-70
2021/12/26 09:33:57;;;;;;;10.50;5.18;;;;;;;-0.09;100.00;100571.81;5236340;28;20060;-70
2021/12/26 09:36:28;;;;;;;7.80;5.10;;;;;;;-0.01;100.00;100575.72;5238413;28;20137;-70
2021/12/26 09:39:00;;;;;;;7.65;4.65;;;;;;;0.02;100.00;100576.50;5235137;28;20025;-71
2021/12/26 09:41:31;;;;;;;9.30;5.50;;;;;;;0.06;100.00;100585.75;5236904;28;20124;-71
2021/12/26 09:44:02;;;;;;;9.32;5.20;;;;;;;0.20;100.00;100583.38;5237237;28;20092;-70
2021/12/26 09:46:35;;;;;;;8.02;4.97;;;;;;;0.22;100.00;100582.38;5239124;28;20025;-70
2021/12/26 09:49:06;;;;;;;8.20;5.00;;;;;;;0.32;100.00;100587.97;5237715;28;20024;-70
2021/12/26 09:51:38;;;;;;;7.97;5.63;;;;;;;0.36;100.00;100580.94;5238145;28;20285;-70
2021/12/26 09:54:10;;;;;;;9.57;6.22;;;;;;;0.41;100.00;100576.38;5237714;28;20522;-71
2021/12/26 09:56:41;;;;;;;10.70;6.43;;;;;;;0.44;100.00;100578.81;5238487;28;20406;-70
2021/12/26 09:59:17;;;;;;;11.40;5.45;;;;;;;0.56;100.00;100570.50;5235135;28;20056;-70
2021/12/26 10:01:51;;;;;;;8.00;5.43;;;;;;;0.57;100.00;100568.75;5233153;28;20530;-71
2021/12/26 10:04:33;;;;;;;8.80;6.10;;;;;;;0.66;100.00;100561.44;5234616;28;20029;-71
2021/12/26 10:07:09;;;;;;;9.80;6.07;;;;;;;0.70;100.00;100557.78;5234738;28;20086;-70
2021/12/26 10:09:47;;;;;;;8.60;5.80;;;;;;;0.81;100.00;100551.28;5238258;28;20033;-70
2021/12/26 10:12:20;;;;;;;10.13;6.15;;;;;;;0.77;100.00;100542.03;5236679;28;20032;-70
2021/12/26 10:14:54;;;;;;;6.55;5.30;;;;;;;0.88;100.00;100545.75;5235179;28;20044;-71
2021/12/26 10:17:30;;;;;;;10.82;6.30;;;;;;;0.85;100.00;100538.16;5235863;28;20391;-70
2021/12/26 10:20:10;;;;;;;10.60;6.78;;;;;;;0.97;100.00;100537.53;5237378;28;20025;-70
2021/12/26 10:22:41;;;;;;;12.02;6.60;;;;;;;0.91;100.00;100527.56;5236133;28;20029;-71
2021/12/26 10:25:15;;;;;;;9.50;6.30;;;;;;;0.96;100.00;100535.88;5233329;28;20870;-70
2021/12/26 10:27:48;;;;;;;11.60;6.38;;;;;;;0.95;100.00;100526.50;5232125;28;20030;-70
2021/12/26 10:30:24;;;;;;;10.10;6.53;;;;;;;0.97;100.00;100524.66;5234370;28;20038;-70
2021/12/26 10:32:59;;;;;;;9.65;6.05;;;;;;;1.09;100.00;100528.34;5235179;28;20393;-70
2021/12/26 10:35:31;;;;;;;10.27;6.80;;;;;;;1.08;100.00;100515.53;5236212;28;20021;-71
2021/12/26 10:38:03;;;;;;;9.00;6.88;;;;;;;1.10;100.00;100514.56;5237979;28;20042;-71
2021/12/26 10:40:35;;;;;;;9.35;6.88;;;;;;;1.10;100.00;100517.16;5240126;28;20394;-70
2021/12/26 10:43:09;;;;;;;9.40;6.97;;;;;;;1.21;100.00;100514.00;5241283;28;20029;-70
2021/12/26 10:45:41;;;;;;;11.10;7.07;;;;;;;1.14;100.00;100516.06;5216036;28;20021;-70
2021/12/26 10:48:12;;;;;;;9.90;6.95;;;;;;;1.23;100.00;100513.94;5240704;28;20021;-71
2021/12/26 10:50:43;;;;;;;10.38;7.63;;;;;;;1.29;100.00;100513.59;5236959;28;20031;-70
2021/12/26 10:53:15;;;;;;;10.57;6.63;;;;;;;1.33;100.00;100509.97;5237219;28;20495;-70
2021/12/26 10:55:51;;;;;;;9.45;6.70;;;;;;;1.40;100.00;100506.13;5237097;28;20045;-70
2021/12/26 10:58:24;;;;;;;9.43;6.65;;;;;;;1.42;100.00;100501.75;5237613;28;20061;-70
2021/12/26 11:00:57;;;;;;;10.52;7.13;;;;;;;1.39;100.00;100496.72;5217095;28;20055;-71
2021/12/26 11:03:30;;;;;;;12.95;6.80;;;;;;;1.41;100.00;100492.34;5237765;28;20069;-70
2021/12/26 11:06:06;;;;;;;10.13;6.80;;;;;;;1.51;100.00;100497.84;5238237;28;20099;-70
2021/12/26 11:08:42;;;;;;;9.93;6.93;;;;;;;1.46;100.00;100486.00;5239656;28;20024;-70
2021/12/26 11:11:18;;;;;;;12.35;7.53;;;;;;;1.45;100.00;100486.09;5239220;28;20032;-71
2021/12/26 11:14:01;;;;;;;11.88;8.00;;;;;;;1.66;100.00;100479.78;5238688;28;20041;-70
2021/12/26 11:16:38;;;;;;;14.00;7.27;;;;;;;1.63;100.00;100482.53;5239029;28;20403;-70
2021/12/26 11:19:09;;;;;;;11.90;7.68;;;;;;;1.64;100.00;100484.19;5239769;28;20021;-70
2021/12/26 11:21:40;;;;;;;12.32;7.60;;;;;;;1.61;100.00;100484.38;5238995;28;20037;-70
2021/12/26 11:24:12;;;;;;;12.93;7.90;;;;;;;1.63;100.00;100482.53;5220677;28;20021;-70
2021/12/26 11:26:43;;;;;;;11.32;7.80;;;;;;;1.67;100.00;100489.22;5236589;28;20060;-70
2021/12/26 11:29:14;;;;;;;16.05;10.77;;;;;;;1.73;100.00;100485.44;5238031;28;20052;-70
2021/12/26 11:31:50;;;;;;;11.02;8.65;;;;;;;1.75;100.00;100473.31;5239020;28;20021;-70
2021/12/26 11:34:24;;;;;;;11.63;7.47;;;;;;;1.63;100.00;100469.63;5240003;28;20021;-70
2021/12/26 11:36:56;;;;;;;10.63;7.15;;;;;;;1.70;100.00;100470.97;5237862;28;20064;-71
2021/12/26 11:39:28;;;;;;;13.07;7.50;;;;;;;1.72;100.00;100470.88;5240784;28;20439;-71
2021/12/26 11:42:30;;;;;;;9.65;7.03;;;;;;;1.87;100.00;100479.53;5237928;28;20037;-71
2021/12/26 11:45:11;;;;;;;12.55;7.70;;;;;;;1.90;100.00;100492.31;5235770;28;20102;-70
2021/12/26 11:47:59;;;;;;;13.63;7.63;;;;;;;1.99;100.00;100491.78;5239809;28;20057;-70
2021/12/26 11:51:14;;;;;;;12.27;8.25;;;;;;;2.14;100.00;100485.78;5236901;28;20071;-71